Time;durP1;ratioP1;P1;durP2;ratioP2;P2;SDS_P1;SDS_P2;PMS_P1;PMS_P2;Temp;Humidity;BMP_temperature;BMP_pressure;BME280_temperature;BME280_humidity;BME280_pressure;Samples;Min_cycle;Max_cycle;Signal;HPM_P1;HPM_P2
2022/05/11 00:00:37;;;;;;;6.15;3.33;;;;;;;4.17;88.27;100948.20;1695539;84;21047;-41
2022/05/11 00:03:04;;;;;;;7.53;3.52;;;;;;;4.17;87.28;100949.92;1695942;84;20956;-41
2022/05/11 00:05:32;;;;;;;4.25;2.90;;;;;;;4.11;85.73;100953.24;1695963;84;21144;-41
2022/05/11 00:07:59;;;;;;;9.60;2.70;;;;;;;4.11;85.73;100953.24;1666272;84;21031;-41
2022/05/11 00:10:26;;;;;;;4.85;2.80;;;;;;;4.02;85.18;100942.83;1695945;84;21076;-41
2022/05/11 00:12:53;;;;;;;7.22;2.40;;;;;;;4.02;85.18;100942.83;1695974;84;20929;-41
2022/05/11 00:15:22;;;;;;;7.40;3.00;;;;;;;3.99;84.80;100948.78;1695995;84;21585;-42
2022/05/11 00:17:48;;;;;;;8.45;3.10;;;;;;;3.99;84.60;100945.34;1695925;84;22148;-41
2022/05/11 00:20:15;;;;;;;10.80;3.00;;;;;;;3.96;84.75;100950.02;1695821;84;20972;-41
2022/05/11 00:22:42;;;;;;;9.05;2.85;;;;;;;3.89;84.59;100952.00;1695892;83;21459;-41
2022/05/11 00:25:11;;;;;;;5.40;2.80;;;;;;;3.80;84.65;100939.05;1695930;84;20929;-42
2022/05/11 00:27:39;;;;;;;5.42;2.35;;;;;;;3.76;84.62;100939.84;1695924;84;21490;-42
2022/05/11 00:30:07;;;;;;;9.68;2.52;;;;;;;3.66;84.60;100931.97;1696092;84;21561;-41
2022/05/11 00:32:33;;;;;;;6.40;2.55;;;;;;;3.63;83.98;100940.04;1666367;84;20873;-41
2022/05/11 00:35:00;;;;;;;5.10;2.42;;;;;;;3.59;83.64;100940.39;1688329;84;20936;-41
2022/05/11 00:37:28;;;;;;;8.68;2.85;;;;;;;3.56;83.89;100942.90;1683494;84;21063;-41
2022/05/11 00:39:54;;;;;;;5.83;2.27;;;;;;;3.49;84.21;100934.67;1695960;84;21003;-41
2022/05/11 00:42:21;;;;;;;4.22;2.72;;;;;;;3.44;84.44;100941.85;1695932;84;21150;-41
2022/05/11 00:44:48;;;;;;;8.40;2.62;;;;;;;3.39;85.43;100941.31;1695878;83;21014;-41
2022/05/11 00:47:25;;;;;;;7.72;3.15;;;;;;;3.30;86.69;100938.16;1696273;84;21044;-41
2022/05/11 00:49:55;;;;;;;8.28;2.40;;;;;;;3.30;86.69;100938.16;1695973;84;21003;-42
2022/05/11 00:52:36;;;;;;;6.70;2.30;;;;;;;3.27;85.65;100939.38;1695232;84;20996;-42
2022/05/11 00:55:13;;;;;;;6.50;2.12;;;;;;;3.30;84.63;100940.31;1695889;84;21407;-41
2022/05/11 00:58:00;;;;;;;8.00;3.10;;;;;;;3.38;83.52;100935.31;1695919;84;20917;-41
2022/05/11 01:00:27;;;;;;;7.53;2.37;;;;;;;3.48;82.85;100931.23;1666743;84;21059;-41
2022/05/11 01:02:59;;;;;;;7.90;2.20;;;;;;;3.62;82.27;100935.32;1696034;84;20968;-41
2022/05/11 01:05:25;;;;;;;6.70;2.45;;;;;;;3.66;81.95;100933.69;1696031;84;20948;-41
2022/05/11 01:07:56;;;;;;;14.23;2.58;;;;;;;3.68;81.59;100932.02;1696078;84;21329;-41
2022/05/11 01:10:25;;;;;;;7.83;2.40;;;;;;;3.70;81.34;100932.50;1695893;84;21490;-42
2022/05/11 01:12:55;;;;;;;7.03;2.35;;;;;;;3.78;80.98;100929.20;1666331;84;20975;-43
2022/05/11 01:15:23;;;;;;;6.85;2.40;;;;;;;3.80;80.87;100929.69;1695855;84;21534;-42
2022/05/11 01:17:49;;;;;;;2.90;2.27;;;;;;;3.84;80.84;100927.62;1696021;84;20995;-42
2022/05/11 01:20:19;;;;;;;7.17;2.25;;;;;;;3.86;80.66;100922.09;1695871;84;21945;-42
2022/05/11 01:23:01;;;;;;;4.30;2.40;;;;;;;3.92;80.23;100920.47;1695714;83;20975;-42
2022/05/11 01:25:28;;;;;;;6.90;2.75;;;;;;;3.97;79.87;100915.88;1696086;83;21137;-42
2022/05/11 01:28:12;;;;;;;4.17;2.65;;;;;;;3.97;79.79;100909.87;1695873;84;20949;-41
2022/05/11 01:30:42;;;;;;;6.47;2.80;;;;;;;3.99;79.93;100913.31;1695166;84;21542;-42
2022/05/11 01:33:08;;;;;;;6.17;2.50;;;;;;;4.03;80.04;100916.36;1695084;84;21138;-41
2022/05/11 01:35:58;;;;;;;11.88;2.85;;;;;;;4.06;80.15;100913.00;1695808;83;20956;-41
2022/05/11 01:38:43;;;;;;;5.03;2.40;;;;;;;4.07;80.31;100907.92;1695956;84;20972;-41
2022/05/11 01:41:27;;;;;;;9.70;2.70;;;;;;;4.08;80.75;100908.36;1696019;84;21059;-42
2022/05/11 01:43:54;;;;;;;10.55;2.83;;;;;;;4.03;81.24;100912.12;1696018;83;21656;-42
2022/05/11 01:46:20;;;;;;;4.65;2.42;;;;;;;4.01;81.54;100911.23;1696018;84;21152;-42
2022/05/11 01:48:47;;;;;;;8.70;2.55;;;;;;;3.99;81.52;100901.78;1695862;84;21007;-43
2022/05/11 01:51:15;;;;;;;9.48;3.02;;;;;;;4.03;81.60;100905.71;1695847;84;21035;-42
2022/05/11 01:53:43;;;;;;;13.50;3.05;;;;;;;4.02;81.62;100901.83;1695983;84;20961;-42
2022/05/11 01:56:09;;;;;;;5.85;2.77;;;;;;;4.02;81.67;100910.80;1695785;83;20960;-42
2022/05/11 01:58:38;;;;;;;9.13;2.75;;;;;;;3.95;81.23;100916.27;1695904;84;21298;-42
2022/05/11 02:01:05;;;;;;;4.83;2.20;;;;;;;3.95;81.23;100916.27;1695856;84;20980;-42
2022/05/11 02:03:32;;;;;;;10.60;2.33;;;;;;;3.87;81.45;100911.42;1695884;83;20924;-42
2022/05/11 02:08:44;;;;;;;6.50;2.37;;;;;;;3.79;81.50;100909.16;1696245;83;21104;-41
2022/05/11 02:11:12;;;;;;;5.17;2.35;;;;;;;3.70;81.37;100908.58;1695851;84;21132;-41
2022/05/11 02:13:41;;;;;;;4.15;1.90;;;;;;;3.66;81.15;100911.48;1695930;84;20941;-42
2022/05/11 02:16:07;;;;;;;3.90;2.12;;;;;;;3.62;80.56;100910.16;1695927;83;20917;-41
2022/05/11 02:18:34;;;;;;;4.03;2.35;;;;;;;3.59;79.98;100909.27;1665920;84;21000;-42
2022/05/11 02:21:01;;;;;;;4.60;2.40;;;;;;;3.58;78.66;100905.39;1695978;83;20940;-43
2022/05/11 02:23:28;;;;;;;3.83;1.90;;;;;;;3.58;78.66;100905.39;1695894;84;21239;-41
2022/05/11 02:25:55;;;;;;;5.62;2.42;;;;;;;3.63;78.52;100901.20;1695963;84;20968;-42
2022/05/11 02:28:23;;;;;;;8.80;2.52;;;;;;;3.71;78.15;100900.94;1696032;83;21015;-42
2022/05/11 02:30:52;;;;;;;3.95;1.82;;;;;;;3.72;77.72;100898.81;1696065;84;21130;-42
2022/05/11 02:33:19;;;;;;;5.22;2.33;;;;;;;3.77;77.31;100888.63;1695951;84;21015;-42
2022/05/11 02:35:47;;;;;;;12.43;2.60;;;;;;;3.84;77.34;100894.72;1695918;84;21745;-42
2022/05/11 02:38:19;;;;;;;5.58;2.55;;;;;;;3.89;77.17;100899.49;1695894;84;21085;-42
2022/05/11 02:40:47;;;;;;;12.15;2.40;;;;;;;3.93;77.07;100899.14;1695489;84;21011;-42
2022/05/11 02:43:14;;;;;;;8.65;2.50;;;;;;;3.96;77.24;100898.78;1695927;84;20975;-41
2022/05/11 02:45:41;;;;;;;5.40;2.30;;;;;;;4.00;77.32;100896.70;1696044;84;20937;-40
2022/05/11 02:48:16;;;;;;;3.60;1.92;;;;;;;4.09;76.92;100895.11;1696258;84;21168;-42
2022/05/11 02:50:47;;;;;;;7.35;2.10;;;;;;;4.16;76.25;100898.20;1695126;84;20897;-42
2022/05/11 02:53:14;;;;;;;5.37;2.10;;;;;;;4.25;75.85;100889.39;1694850;84;20992;-42
2022/05/11 02:55:43;;;;;;;6.87;1.98;;;;;;;4.32;75.41;100896.75;1695811;84;21443;-42
2022/05/11 02:58:12;;;;;;;4.05;2.17;;;;;;;4.38;75.17;100889.55;1695861;84;20968;-40
2022/05/11 03:00:43;;;;;;;6.47;2.25;;;;;;;4.38;74.95;100890.42;1695840;84;21150;-42
2022/05/11 03:03:11;;;;;;;11.25;2.47;;;;;;;4.41;74.51;100887.02;1695991;84;20917;-42
2022/05/11 03:05:39;;;;;;;7.42;1.90;;;;;;;4.48;74.48;100889.26;1695812;84;20956;-43
2022/05/11 03:08:07;;;;;;;5.80;2.05;;;;;;;4.55;74.00;100889.80;1695804;83;21011;-40
2022/05/11 03:10:35;;;;;;;4.75;1.90;;;;;;;4.62;73.31;100891.60;1696009;84;21114;-41
2022/05/11 03:13:03;;;;;;;4.05;1.87;;;;;;;4.71;73.08;100892.14;1696062;84;21155;-42
2022/05/11 03:15:31;;;;;;;4.58;1.50;;;;;;;4.81;72.60;100884.99;1695996;84;21015;-42
2022/05/11 03:17:58;;;;;;;5.28;1.87;;;;;;;4.95;72.41;100889.44;1696079;84;21022;-41
2022/05/11 03:20:26;;;;;;;12.70;2.45;;;;;;;5.08;72.12;100889.16;1666080;84;21546;-41
2022/05/11 03:22:54;;;;;;;6.95;2.20;;;;;;;5.24;70.78;100885.89;1695958;83;21443;-41
2022/05/11 03:25:22;;;;;;;2.58;1.40;;;;;;;5.41;69.30;100895.48;1695955;84;21131;-42
2022/05/11 03:27:49;;;;;;;9.20;3.15;;;;;;;5.60;67.77;100889.69;1666123;84;20973;-41
2022/05/11 03:30:16;;;;;;;2.85;1.70;;;;;;;5.81;65.88;100884.71;1696160;84;20964;-43
2022/05/11 03:35:28;;;;;;;4.75;1.95;;;;;;;6.16;64.83;100891.44;1696275;84;21621;-41
2022/05/11 03:37:56;;;;;;;10.90;1.82;;;;;;;6.38;62.86;100889.41;1695979;84;21254;-41
2022/05/11 03:40:23;;;;;;;4.42;1.50;;;;;;;6.57;61.01;100905.39;1695933;84;20968;-41
2022/05/11 03:42:50;;;;;;;5.58;2.10;;;;;;;6.79;59.40;100899.48;1696003;84;21011;-41
2022/05/11 03:45:20;;;;;;;3.10;1.65;;;;;;;7.00;58.25;100906.45;1695996;84;20968;-42
2022/05/11 03:47:47;;;;;;;8.15;1.75;;;;;;;7.19;58.75;100904.34;1696011;84;20967;-42
2022/05/11 03:50:22;;;;;;;4.30;1.80;;;;;;;7.38;57.68;100905.67;1696040;84;21045;-42
2022/05/11 03:52:51;;;;;;;5.40;1.75;;;;;;;7.51;57.93;100905.27;1696255;84;21020;-42
2022/05/11 03:55:18;;;;;;;4.28;1.57;;;;;;;7.61;57.19;100910.89;1695772;83;20945;-42
2022/05/11 03:57:44;;;;;;;4.80;1.85;;;;;;;7.69;58.25;100914.73;1696410;84;21008;-41
2022/05/11 04:00:21;;;;;;;5.70;1.50;;;;;;;7.75;57.61;100913.47;1666586;84;20945;-42
2022/05/11 04:02:49;;;;;;;6.92;1.95;;;;;;;7.79;58.40;100914.76;1696063;84;21276;-42
2022/05/11 04:05:16;;;;;;;2.30;1.27;;;;;;;7.82;58.41;100916.05;1665997;84;20912;-42
2022/05/11 04:07:44;;;;;;;11.57;1.95;;;;;;;7.84;57.58;100910.45;1696103;84;20893;-42
2022/05/11 04:10:12;;;;;;;2.85;1.52;;;;;;;7.87;57.92;100909.16;1695887;84;20996;-41
2022/05/11 04:12:39;;;;;;;4.00;1.55;;;;;;;7.90;58.10;100914.31;1696021;84;21550;-41
2022/05/11 04:15:08;;;;;;;6.25;2.00;;;;;;;7.93;59.13;100912.18;1696023;84;21141;-42
2022/05/11 04:17:35;;;;;;;10.08;2.12;;;;;;;7.98;59.30;100911.33;1695990;84;21019;-42
2022/05/11 04:20:04;;;;;;;5.90;1.75;;;;;;;8.02;58.93;100914.74;1666010;84;21042;-42
2022/05/11 04:22:31;;;;;;;5.37;1.57;;;;;;;8.10;59.27;100910.88;1695719;83;21031;-42
2022/05/11 04:24:57;;;;;;;4.28;1.75;;;;;;;8.15;58.49;100917.76;1695822;83;20932;-42
2022/05/11 04:27:24;;;;;;;6.92;1.90;;;;;;;8.24;58.68;100919.47;1695795;84;21055;-43
2022/05/11 04:29:51;;;;;;;2.35;1.60;;;;;;;8.37;59.25;100917.73;1695994;84;21003;-42
2022/05/11 04:32:18;;;;;;;7.45;1.92;;;;;;;8.50;57.70;100924.17;1696020;83;21016;-42
2022/05/11 04:34:45;;;;;;;2.02;1.50;;;;;;;8.55;57.40;100924.59;1695975;84;20933;-43
2022/05/11 04:37:14;;;;;;;5.62;1.75;;;;;;;8.65;58.72;100924.56;1695975;84;20983;-43
2022/05/11 04:39:40;;;;;;;7.17;2.02;;;;;;;8.77;58.43;100920.66;1682103;84;21097;-42
2022/05/11 04:42:09;;;;;;;10.10;1.40;;;;;;;8.89;57.29;100926.22;1695812;84;20979;-42
2022/05/11 04:44:35;;;;;;;6.25;1.92;;;;;;;8.99;58.06;100924.01;1695908;84;21491;-43
2022/05/11 04:47:11;;;;;;;2.98;1.60;;;;;;;9.12;58.58;100924.81;1695973;83;20924;-42
2022/05/11 04:49:39;;;;;;;6.25;2.05;;;;;;;9.33;58.03;100926.86;1696017;84;21497;-42
2022/05/11 04:52:12;;;;;;;4.70;1.62;;;;;;;9.43;58.35;100919.47;1695967;84;21114;-43
2022/05/11 04:54:42;;;;;;;1.52;1.42;;;;;;;9.59;58.70;100923.25;1695843;83;21459;-43
2022/05/11 04:57:09;;;;;;;17.85;3.12;;;;;;;9.73;58.89;100922.73;1695065;84;21008;-42
2022/05/11 04:59:35;;;;;;;6.90;1.85;;;;;;;9.88;57.97;100924.77;1696337;84;20972;-43
2022/05/11 05:02:04;;;;;;;6.05;2.02;;;;;;;9.96;58.27;100924.25;1696043;84;21569;-43
2022/05/11 05:04:31;;;;;;;2.87;1.40;;;;;;;10.08;58.56;100922.45;1695759;84;21046;-43
2022/05/11 05:06:58;;;;;;;6.33;1.65;;;;;;;10.23;58.49;100927.91;1696033;84;21055;-43
2022/05/11 05:09:25;;;;;;;4.45;1.67;;;;;;;10.34;58.77;100921.77;1695816;83;20952;-43
2022/05/11 05:11:51;;;;;;;8.20;1.77;;;;;;;10.47;58.51;100930.30;1695844;84;20968;-42
2022/05/11 05:14:18;;;;;;;2.02;1.77;;;;;;;10.59;59.16;100937.49;1695926;84;20964;-43
2022/05/11 05:16:45;;;;;;;6.08;1.82;;;;;;;10.74;59.37;100933.45;1696005;84;21191;-43
2022/05/11 05:19:11;;;;;;;3.50;2.00;;;;;;;10.89;59.52;100929.81;1665927;84;20976;-43
2022/05/11 05:21:38;;;;;;;5.40;1.92;;;;;;;11.05;59.70;100929.64;1695962;84;21095;-43
2022/05/11 05:24:06;;;;;;;5.92;2.05;;;;;;;11.29;59.36;100930.19;1700782;83;20892;-43
2022/05/11 05:26:33;;;;;;;19.80;2.45;;;;;;;11.39;59.62;100926.58;1685618;85;20965;-42
2022/05/11 05:31:45;;;;;;;5.28;2.15;;;;;;;11.68;58.86;100923.98;1682513;85;20991;-43
2022/05/11 05:34:12;;;;;;;16.87;2.77;;;;;;;11.87;58.56;100918.09;1701414;84;21023;-42
2022/05/11 05:36:41;;;;;;;44.05;3.42;;;;;;;11.96;59.66;100922.70;1711084;83;20971;-43
2022/05/11 05:39:07;;;;;;;4.42;1.72;;;;;;;12.15;59.44;100925.44;1701547;84;21027;-42
2022/05/11 05:41:35;;;;;;;3.55;1.60;;;;;;;12.36;56.70;100922.88;1711162;83;21055;-43
2022/05/11 05:44:04;;;;;;;3.00;1.52;;;;;;;12.57;55.92;100923.37;1701462;84;21490;-43
2022/05/11 05:46:30;;;;;;;11.45;1.87;;;;;;;12.79;48.12;100916.45;1711182;83;20932;-43
2022/05/11 05:48:57;;;;;;;6.25;1.87;;;;;;;12.89;44.29;100913.23;1701498;84;20987;-43
2022/05/11 05:51:25;;;;;;;5.83;1.35;;;;;;;13.01;42.84;100918.15;1685745;85;21491;-43
2022/05/11 05:53:51;;;;;;;18.67;2.00;;;;;;;13.03;41.46;100921.57;1711252;83;21894;-43
2022/05/11 05:56:18;;;;;;;5.37;1.52;;;;;;;13.00;40.33;100917.73;1682488;85;20951;-43
2022/05/11 05:58:45;;;;;;;5.67;2.05;;;;;;;13.02;41.79;100921.16;1701532;84;20905;-44
2022/05/11 06:01:12;;;;;;;4.75;1.80;;;;;;;13.15;39.40;100924.81;1711025;83;20888;-43
2022/05/11 06:03:40;;;;;;;5.40;1.75;;;;;;;13.23;41.40;100919.83;1701239;83;20968;-43
2022/05/11 06:06:08;;;;;;;6.45;1.30;;;;;;;13.50;39.81;100920.59;1711260;82;21797;-42
2022/05/11 06:08:36;;;;;;;9.45;1.92;;;;;;;13.63;39.82;100922.45;1701484;84;21007;-43
2022/05/11 06:11:03;;;;;;;2.35;1.62;;;;;;;13.76;40.38;100925.15;1711125;82;20909;-43
2022/05/11 06:13:30;;;;;;;13.83;1.57;;;;;;;13.95;38.63;100920.80;1701419;84;21445;-44
2022/05/11 06:15:57;;;;;;;2.85;1.22;;;;;;;13.99;38.79;100919.83;1711126;82;20865;-41
2022/05/11 06:18:25;;;;;;;11.08;1.82;;;;;;;14.02;36.92;100922.38;1682476;85;21565;-41
2022/05/11 06:20:52;;;;;;;5.25;1.60;;;;;;;13.96;38.17;100915.16;1701323;84;21602;-42
2022/05/11 06:23:22;;;;;;;14.43;2.00;;;;;;;13.99;37.08;100926.80;1706837;83;20968;-43
2022/05/11 06:25:49;;;;;;;9.50;1.92;;;;;;;13.88;37.87;100925.76;1695965;84;21007;-43
2022/05/11 06:28:16;;;;;;;7.22;2.20;;;;;;;13.84;37.97;100918.92;1695919;84;20885;-43
2022/05/11 06:30:43;;;;;;;4.53;1.30;;;;;;;13.84;37.60;100921.53;1695906;84;21198;-43
2022/05/11 06:33:10;;;;;;;1.87;1.27;;;;;;;13.89;37.85;100927.47;1695990;84;20960;-43
2022/05/11 06:35:36;;;;;;;2.67;1.50;;;;;;;13.87;36.10;100924.89;1695817;83;21447;-44
2022/05/11 06:38:05;;;;;;;6.15;1.77;;;;;;;13.75;38.37;100914.80;1695674;84;21507;-43
2022/05/11 06:40:32;;;;;;;12.30;2.35;;;;;;;13.76;38.14;100911.30;1695947;84;21617;-44
2022/05/11 06:42:58;;;;;;;11.12;1.50;;;;;;;13.86;37.74;100917.14;1695897;84;21080;-44
2022/05/11 06:45:25;;;;;;;2.35;1.40;;;;;;;13.86;37.46;100920.58;1696066;84;20912;-45
2022/05/11 06:47:54;;;;;;;4.10;1.40;;;;;;;13.92;37.02;100919.58;1696081;83;20960;-42
2022/05/11 06:50:21;;;;;;;9.98;1.37;;;;;;;13.99;38.86;100921.13;1696113;84;21593;-42
2022/05/11 06:52:48;;;;;;;11.85;1.50;;;;;;;14.02;37.17;100927.58;1696004;83;20988;-43
2022/05/11 07:00:46;;;;;;;6.00;1.52;;;;;;;13.89;38.09;100924.44;1696203;84;20888;-42
2022/05/11 07:03:13;;;;;;;1.85;1.65;;;;;;;14.01;38.10;100921.94;1696009;84;20995;-42
2022/05/11 07:05:41;;;;;;;5.72;1.50;;;;;;;14.08;37.56;100920.91;1696251;84;21577;-43
2022/05/11 07:08:08;;;;;;;5.78;1.30;;;;;;;14.15;35.83;100921.61;1695949;84;21263;-44
2022/05/11 07:10:42;;;;;;;1.47;1.30;;;;;;;14.03;35.79;100926.69;1695725;83;20944;-44
2022/05/11 07:13:07;;;;;;;5.75;1.30;;;;;;;13.95;35.24;100920.80;1695924;84;21051;-44
2022/05/11 07:15:35;;;;;;;7.30;1.67;;;;;;;13.82;36.31;100925.92;1695933;83;20944;-43
2022/05/11 07:18:03;;;;;;;9.68;1.67;;;;;;;13.83;37.96;100917.22;1696086;83;21001;-43
2022/05/11 07:20:40;;;;;;;4.37;1.27;;;;;;;13.85;36.66;100910.23;1696069;84;21147;-43
2022/05/11 07:23:06;;;;;;;4.62;1.87;;;;;;;13.81;37.34;100916.41;1696115;83;21605;-42
2022/05/11 07:25:33;;;;;;;19.17;1.70;;;;;;;13.79;36.48;100912.09;1711078;83;21489;-43
2022/05/11 07:28:00;;;;;;;5.42;1.65;;;;;;;13.79;38.38;100910.80;1701607;84;20964;-42
2022/05/11 07:30:32;;;;;;;2.87;1.52;;;;;;;13.99;36.94;100902.91;1711421;83;20995;-42
2022/05/11 07:33:00;;;;;;;9.58;1.60;;;;;;;14.03;36.21;100898.05;1676380;84;21403;-42
2022/05/11 07:35:28;;;;;;;7.95;1.52;;;;;;;14.04;36.30;100897.16;1685691;85;21013;-42
2022/05/11 07:37:55;;;;;;;2.22;1.30;;;;;;;14.11;35.98;100902.20;1711081;83;20983;-43
2022/05/11 07:40:23;;;;;;;2.35;1.35;;;;;;;14.29;36.72;100897.81;1701422;84;21066;-42
2022/05/11 07:42:50;;;;;;;2.08;1.40;;;;;;;14.53;35.28;100896.73;1711078;83;21037;-43
2022/05/11 07:45:17;;;;;;;1.95;1.17;;;;;;;14.71;35.19;100891.91;1701829;84;22013;-43
2022/05/11 07:47:44;;;;;;;4.53;0.93;;;;;;;14.87;35.16;100899.70;1660346;85;20917;-43
2022/05/11 07:50:15;;;;;;;11.20;1.70;;;;;;;14.94;33.46;100890.80;1711231;83;21470;-43
2022/05/11 07:52:44;;;;;;;11.18;1.40;;;;;;;15.13;35.43;100894.16;1682492;85;20876;-43
2022/05/11 07:55:11;;;;;;;9.28;1.35;;;;;;;15.30;33.07;100882.36;1701523;84;21070;-42
2022/05/11 08:00:23;;;;;;;3.80;1.22;;;;;;;15.55;33.47;100889.41;1711232;83;20940;-42
2022/05/11 08:02:49;;;;;;;6.92;2.10;;;;;;;15.71;32.97;100884.53;1682399;85;21528;-44
2022/05/11 08:05:17;;;;;;;3.85;1.65;;;;;;;15.89;30.40;100884.39;1711178;83;20931;-42
2022/05/11 08:07:55;;;;;;;6.90;1.60;;;;;;;15.73;31.50;100886.17;1711224;83;20979;-43
2022/05/11 08:10:26;;;;;;;4.15;1.40;;;;;;;15.73;31.53;100879.64;1701550;84;21247;-43
2022/05/11 08:12:53;;;;;;;9.85;2.00;;;;;;;15.83;31.38;100888.49;1710564;83;20955;-43
2022/05/11 08:15:24;;;;;;;4.35;1.70;;;;;;;15.90;30.77;100873.88;1675615;84;21023;-44
2022/05/11 08:17:51;;;;;;;1.75;1.65;;;;;;;15.83;30.59;100872.83;1711027;83;20912;-43
2022/05/11 08:20:25;;;;;;;4.72;1.87;;;;;;;15.86;33.36;100870.11;1701564;84;21010;-43
2022/05/11 08:22:53;;;;;;;5.53;1.90;;;;;;;16.17;31.83;100863.85;1684053;84;21391;-43
2022/05/11 08:25:24;;;;;;;4.03;2.22;;;;;;;16.37;28.88;100864.00;1720978;83;20971;-43
2022/05/11 08:27:52;;;;;;;6.35;2.02;;;;;;;16.27;28.43;100860.00;1692773;84;21040;-43
2022/05/11 08:33:26;;;;;;;3.85;1.92;;;;;;;16.01;27.62;100851.80;1693021;84;21006;-43
2022/05/11 08:36:06;;;;;;;4.58;1.55;;;;;;;15.88;29.00;100839.59;1692825;84;21273;-43
2022/05/11 08:38:39;;;;;;;3.60;2.45;;;;;;;16.08;29.21;100835.87;1721656;83;21006;-43
2022/05/11 08:41:23;;;;;;;4.65;2.02;;;;;;;16.19;29.04;100845.06;1721545;83;21385;-43
2022/05/11 08:43:50;;;;;;;9.83;1.95;;;;;;;16.29;28.93;100834.67;1692610;84;21007;-43
2022/05/11 08:46:40;;;;;;;5.15;1.75;;;;;;;16.38;28.95;100825.65;1695228;83;21041;-43
2022/05/11 08:49:28;;;;;;;;;;;;;;;16.53;28.61;100826.84;1712076;84;21261;-42
2022/05/11 08:52:05;;;;;;;7.60;1.75;;;;;;;16.72;28.46;100818.30;1720612;83;20148;-43
2022/05/11 08:55:09;;;;;;;3.85;1.67;;;;;;;16.82;27.98;100807.91;1677366;84;21001;-43
2022/05/11 08:57:36;;;;;;;4.50;2.00;;;;;;;17.14;26.68;100824.11;1720758;83;21453;-43
2022/05/11 09:00:11;;;;;;;4.10;1.92;;;;;;;17.41;25.08;100809.50;1692766;84;20939;-43
2022/05/11 09:02:50;;;;;;;3.20;1.52;;;;;;;17.31;24.57;100806.41;1692090;84;21091;-43
2022/05/11 09:05:19;;;;;;;6.55;2.08;;;;;;;17.31;26.40;100810.81;1721616;83;20936;-43
2022/05/11 09:07:49;;;;;;;3.55;1.87;;;;;;;17.40;24.49;100801.27;1721703;83;21497;-43
2022/05/11 09:10:32;;;;;;;6.35;2.17;;;;;;;17.55;25.24;100797.59;1692669;84;21006;-44
2022/05/11 09:13:06;;;;;;;6.50;1.98;;;;;;;17.70;26.69;100798.27;1691897;84;21026;-43
2022/05/11 09:16:02;;;;;;;5.70;2.15;;;;;;;17.55;26.84;100806.75;1691566;83;21130;-43
2022/05/11 09:18:38;;;;;;;7.57;3.40;;;;;;;17.70;24.84;100796.95;1693061;83;21441;-45
2022/05/11 09:21:29;;;;;;;2.25;1.90;;;;;;;17.78;24.78;100797.46;1721477;83;20935;-43
2022/05/11 09:24:31;;;;;;;5.83;1.82;;;;;;;17.77;29.00;100794.45;1721509;83;20907;-42
2022/05/11 09:27:12;;;;;;;3.77;1.80;;;;;;;17.68;30.72;100796.17;1692502;83;20951;-43
2022/05/11 09:29:43;;;;;;;6.58;1.90;;;;;;;17.74;31.25;100791.14;1693994;82;21183;-44
2022/05/11 09:32:38;;;;;;;6.33;2.62;;;;;;;17.62;30.76;100788.59;1692799;83;20991;-44
2022/05/11 09:35:24;;;;;;;9.60;1.90;;;;;;;17.62;30.75;100788.59;1690396;83;20935;-45
2022/05/11 09:38:21;;;;;;;4.17;1.70;;;;;;;17.50;31.30;100794.72;1721663;82;20988;-45
2022/05/11 09:40:58;;;;;;;4.03;1.90;;;;;;;17.33;30.89;100789.36;1692602;84;20903;-44
2022/05/11 09:43:39;;;;;;;5.65;1.72;;;;;;;17.28;32.52;100788.23;1721335;83;21060;-43
2022/05/11 09:46:31;;;;;;;11.53;2.12;;;;;;;17.47;32.25;100783.55;1692593;84;21513;-43
2022/05/11 09:49:05;;;;;;;18.60;3.27;;;;;;;17.62;30.47;100779.42;1692734;84;21490;-43
2022/05/11 09:51:50;;;;;;;22.47;2.47;;;;;;;17.49;31.53;100774.70;1692941;84;20963;-43
2022/05/11 09:54:38;;;;;;;8.98;2.12;;;;;;;17.29;31.15;100781.22;1692745;83;20947;-45
2022/05/11 09:57:13;;;;;;;3.25;1.70;;;;;;;17.23;31.86;100780.56;1721462;83;21064;-44
2022/05/11 09:59:52;;;;;;;24.50;2.47;;;;;;;17.37;30.08;100777.84;1720860;83;20947;-43
2022/05/11 10:02:38;;;;;;;13.95;1.87;;;;;;;17.44;30.71;100778.45;1691648;84;21445;-44
2022/05/11 10:05:20;;;;;;;4.95;2.20;;;;;;;17.58;30.55;100779.17;1651004;85;20973;-45
2022/05/11 10:08:01;;;;;;;8.45;2.10;;;;;;;17.57;31.02;100773.55;1698514;84;21002;-45
2022/05/11 10:10:44;;;;;;;6.97;2.17;;;;;;;17.46;29.95;100785.30;1698528;84;21345;-44
2022/05/11 10:13:23;;;;;;;8.05;2.05;;;;;;;17.30;32.00;100777.25;1698307;84;22309;-42
2022/05/11 10:21:52;;;;;;;2.45;1.70;;;;;;;17.29;30.80;100768.14;1698432;84;21007;-44
2022/05/11 10:24:58;;;;;;;5.92;1.95;;;;;;;17.48;29.80;100774.31;1699365;84;21556;-43
2022/05/11 10:27:59;;;;;;;10.82;2.62;;;;;;;17.41;29.88;100775.94;1721446;83;20936;-43
2022/05/11 10:30:50;;;;;;;5.17;1.72;;;;;;;17.22;31.03;100778.03;1721597;83;20992;-43
2022/05/11 10:34:00;;;;;;;12.73;2.25;;;;;;;17.36;30.59;100772.22;1692810;83;21025;-43
2022/05/11 10:36:47;;;;;;;26.70;2.72;;;;;;;17.49;28.59;100768.16;1721645;83;20907;-43
2022/05/11 10:40:34;;;;;;;17.20;1.65;;;;;;;17.43;28.40;100767.56;1798664;79;22322;-43
2022/05/11 10:43:47;;;;;;;9.68;2.80;;;;;;;17.32;29.52;100779.81;1748139;81;20916;-44
2022/05/11 10:46:22;;;;;;;28.32;2.45;;;;;;;17.37;29.96;100785.22;1749825;80;21481;-43
2022/05/11 10:49:34;;;;;;;7.12;2.08;;;;;;;17.37;30.50;100781.77;1749946;82;20940;-43
2022/05/11 10:52:35;;;;;;;24.57;2.47;;;;;;;17.27;30.24;100785.23;1719385;82;20928;-45
2022/05/11 10:55:25;;;;;;;7.60;1.87;;;;;;;17.03;31.75;100779.22;1749820;82;21485;-44
2022/05/11 10:58:35;;;;;;;4.50;1.80;;;;;;;16.94;31.35;100785.19;1720502;82;21061;-43
2022/05/11 11:01:14;;;;;;;9.10;2.10;;;;;;;17.03;30.77;100787.92;1749951;82;21285;-44
2022/05/11 11:04:14;;;;;;;7.37;1.52;;;;;;;17.00;32.10;100805.05;1749598;81;21490;-42
2022/05/11 11:07:11;;;;;;;14.10;2.05;;;;;;;16.94;31.57;100790.41;1749206;82;21482;-45
2022/05/11 11:10:29;;;;;;;13.65;2.00;;;;;;;16.89;30.92;100794.12;1749815;81;20932;-43
2022/05/11 11:13:29;;;;;;;8.25;1.98;;;;;;;16.83;31.16;100790.00;1749777;81;21458;-43
2022/05/11 11:15:57;;;;;;;43.78;3.15;;;;;;;16.86;31.40;100792.50;1749788;82;21164;-44
2022/05/11 11:18:34;;;;;;;17.90;2.50;;;;;;;17.18;31.31;100790.84;1749841;82;21525;-45
2022/05/11 11:21:02;;;;;;;14.60;2.20;;;;;;;17.32;29.19;100787.19;1749233;82;20964;-44
2022/05/11 11:23:37;;;;;;;41.88;3.30;;;;;;;17.20;29.89;100773.32;1749517;81;20983;-44
2022/05/11 11:26:12;;;;;;;6.12;1.60;;;;;;;17.13;30.60;100784.48;1749898;82;20979;-44
2022/05/11 11:28:47;;;;;;;20.08;2.90;;;;;;;17.32;30.02;100790.28;1749854;82;21130;-43
2022/05/11 11:31:20;;;;;;;97.57;5.85;;;;;;;17.51;28.51;100787.73;1746633;82;20932;-43
2022/05/11 11:34:09;;;;;;;7.30;1.60;;;;;;;17.30;28.07;100783.78;1749666;81;21024;-44
2022/05/11 11:36:40;;;;;;;9.00;1.85;;;;;;;17.28;28.84;100771.23;1749747;82;20893;-44
2022/05/11 11:39:10;;;;;;;18.30;2.12;;;;;;;17.44;31.03;100779.28;1743291;81;21027;-44
2022/05/11 11:41:47;;;;;;;29.30;2.52;;;;;;;17.62;28.24;100778.12;1736517;82;20988;-44
2022/05/11 11:44:34;;;;;;;12.83;2.00;;;;;;;17.59;28.14;100769.09;1736657;82;20957;-44
2022/05/11 11:46:58;;;;;;;6.22;1.70;;;;;;;17.57;29.99;100764.38;1736118;82;20940;-44
2022/05/11 11:49:33;;;;;;;45.60;4.37;;;;;;;17.82;29.43;100772.01;1736549;81;20969;-44
2022/05/11 11:52:05;;;;;;;36.15;3.15;;;;;;;18.01;29.20;100763.34;1735950;82;20898;-44
2022/05/11 11:54:42;;;;;;;9.63;1.98;;;;;;;18.09;28.03;100756.88;1735949;82;21150;-44
2022/05/11 11:57:26;;;;;;;5.72;1.70;;;;;;;18.02;29.03;100765.08;1735841;82;20890;-44
2022/05/11 12:00:13;;;;;;;30.88;2.67;;;;;;;17.84;28.87;100758.86;1735949;81;21507;-45
2022/05/11 12:02:42;;;;;;;56.95;3.98;;;;;;;17.75;27.79;100763.56;1736018;81;20964;-43
2022/05/11 12:05:38;;;;;;;41.48;3.55;;;;;;;17.57;28.63;100760.46;1715140;82;21023;-43
2022/05/11 12:16:56;;;;;;;13.22;2.00;;;;;;;17.56;27.94;100769.23;1736044;82;20894;-43
2022/05/11 12:19:26;;;;;;;6.62;2.10;;;;;;;17.50;27.93;100766.41;1735962;82;20917;-43
2022/05/11 12:22:08;;;;;;;10.58;2.05;;;;;;;17.29;27.64;100758.55;1736032;82;21792;-43
2022/05/11 12:24:41;;;;;;;3.72;2.12;;;;;;;17.09;27.33;100752.37;1735764;81;21424;-43
2022/05/11 12:27:13;;;;;;;9.68;2.05;;;;;;;17.06;28.77;100762.95;1735916;81;20885;-44